createdAt,value
2022-08-26T00:01:07.941Z,7.20
2022-08-26T00:04:12.146Z,6.90
2022-08-26T00:07:15.462Z,6.50
2022-08-26T00:10:18.861Z,6.90
2022-08-26T00:13:22.466Z,6.95
2022-08-26T00:16:26.723Z,7.25
2022-08-26T00:19:29.488Z,7.63
2022-08-26T00:22:31.648Z,6.95
2022-08-26T00:25:33.916Z,7.03
2022-08-26T00:28:36.466Z,7.38
2022-08-26T00:31:38.850Z,7.50
2022-08-26T00:34:42.101Z,7.97
2022-08-26T00:37:44.469Z,7.63
2022-08-26T00:40:52.264Z,7.63
2022-08-26T00:43:54.563Z,7.38
2022-08-26T00:47:00.747Z,7.35
2022-08-26T00:50:07.541Z,7.83
2022-08-26T00:53:24.061Z,7.45
2022-08-26T00:56:38.056Z,8.55
2022-08-26T00:59:40.575Z,8.55
2022-08-26T01:02:46.805Z,9.10
2022-08-26T01:05:51.162Z,8.73
2022-08-26T01:08:53.820Z,9.50
2022-08-26T01:11:58.122Z,8.48
2022-08-26T01:15:02.142Z,8.85
2022-08-26T01:18:05.609Z,9.20
2022-08-26T01:21:08.018Z,8.43
2022-08-26T01:24:11.625Z,9.02
2022-08-26T01:27:19.067Z,8.88
2022-08-26T01:30:21.434Z,9.40
2022-08-26T01:33:28.543Z,9.25
2022-08-26T01:36:30.921Z,9.57
2022-08-26T01:39:34.239Z,8.95
2022-08-26T01:42:36.502Z,8.93
2022-08-26T01:45:40.493Z,9.45
2022-08-26T01:48:44.348Z,8.48
2022-08-26T01:51:48.168Z,8.50
2022-08-26T01:54:52.977Z,8.02
2022-08-26T01:57:57.524Z,8.23
2022-08-26T02:01:00.156Z,7.88
2022-08-26T02:04:14.841Z,10.02
2022-08-26T02:07:18.524Z,8.90
2022-08-26T02:10:23.920Z,9.05
2022-08-26T02:13:28.934Z,9.80
2022-08-26T02:16:37.986Z,8.85
2022-08-26T02:19:47.179Z,10.15
2022-08-26T02:22:50.000Z,10.23
2022-08-26T02:26:09.349Z,9.93
2022-08-26T02:29:27.492Z,9.40
2022-08-26T02:32:30.701Z,9.45
2022-08-26T02:35:33.854Z,9.98
2022-08-26T02:38:37.368Z,9.60
2022-08-26T02:41:45.178Z,9.77
2022-08-26T02:44:48.362Z,9.43
2022-08-26T02:47:51.540Z,10.02
2022-08-26T02:50:54.635Z,9.75
2022-08-26T02:53:57.061Z,9.67
2022-08-26T02:56:59.477Z,9.40
2022-08-26T03:00:02.506Z,8.95
2022-08-26T03:03:05.283Z,9.98
2022-08-26T03:06:07.506Z,10.85
2022-08-26T03:09:11.075Z,9.90
2022-08-26T03:12:20.877Z,10.48
2022-08-26T03:15:23.303Z,10.07
2022-08-26T03:18:25.551Z,9.27
2022-08-26T03:21:27.808Z,8.63
2022-08-26T03:24:30.715Z,10.23
2022-08-26T03:27:34.234Z,9.80
2022-08-26T03:30:45.440Z,10.63
2022-08-26T03:33:48.131Z,10.55
2022-08-26T03:36:51.888Z,9.88
2022-08-26T03:39:54.125Z,9.73
2022-08-26T03:42:56.848Z,9.57
2022-08-26T03:45:59.113Z,9.93
2022-08-26T03:49:02.236Z,11.25
2022-08-26T03:52:04.884Z,10.43
2022-08-26T03:55:08.933Z,9.80
2022-08-26T03:58:11.657Z,9.75
2022-08-26T04:01:16.216Z,9.90
2022-08-26T04:04:18.702Z,10.40
2022-08-26T04:07:26.033Z,10.43
2022-08-26T04:10:29.115Z,10.70
2022-08-26T04:13:32.389Z,10.18
2022-08-26T04:16:35.167Z,10.75
2022-08-26T04:19:37.435Z,9.88
2022-08-26T04:22:42.147Z,11.10
2022-08-26T04:25:44.379Z,11.40
2022-08-26T04:28:48.640Z,10.25
2022-08-26T04:31:55.548Z,9.88
2022-08-26T04:34:58.020Z,9.52
2022-08-26T04:38:03.375Z,10.60
2022-08-26T04:41:14.942Z,10.23
2022-08-26T04:44:19.010Z,10.45
2022-08-26T04:47:21.511Z,11.27
2022-08-26T04:50:25.815Z,10.80
2022-08-26T04:53:29.064Z,11.20
2022-08-26T04:56:34.055Z,10.83
2022-08-26T04:59:39.283Z,11.40
2022-08-26T05:02:41.909Z,10.43
2022-08-26T05:05:46.346Z,9.95
2022-08-26T05:08:48.640Z,9.98
2022-08-26T05:11:54.104Z,10.33
2022-08-26T05:14:56.397Z,9.95
2022-08-26T05:17:59.617Z,9.85
2022-08-26T05:21:03.728Z,8.95
2022-08-26T05:24:06.959Z,9.63
2022-08-26T05:27:11.765Z,9.80
2022-08-26T05:30:14.845Z,9.02
2022-08-26T05:33:18.351Z,9.32
2022-08-26T05:36:22.808Z,8.80
2022-08-26T05:39:25.017Z,7.60
2022-08-26T05:42:27.186Z,8.23
2022-08-26T05:45:32.243Z,8.15
2022-08-26T05:48:34.730Z,7.88
2022-08-26T05:51:36.963Z,7.10
2022-08-26T05:54:39.945Z,6.80
2022-08-26T05:57:42.827Z,7.03
2022-08-26T06:00:45.918Z,6.25
2022-08-26T06:03:52.947Z,6.80
2022-08-26T06:06:55.831Z,6.10
2022-08-26T06:10:21.614Z,6.20
2022-08-26T06:13:25.372Z,5.60
2022-08-26T06:16:29.078Z,5.45
2022-08-26T06:19:32.975Z,5.53
2022-08-26T06:22:55.552Z,5.70
2022-08-26T06:25:58.009Z,5.55
2022-08-26T06:29:00.608Z,5.40
2022-08-26T06:32:04.744Z,4.80
2022-08-26T06:35:07.426Z,5.40
2022-08-26T06:38:14.748Z,5.75
2022-08-26T06:41:18.377Z,5.47
2022-08-26T06:44:21.039Z,5.50
2022-08-26T06:47:23.260Z,4.97
2022-08-26T06:50:27.030Z,4.97
2022-08-26T06:53:31.018Z,4.80
2022-08-26T06:56:42.741Z,5.28
2022-08-26T06:59:44.946Z,4.70
2022-08-26T07:02:47.707Z,4.47
2022-08-26T07:05:50.982Z,4.72
2022-08-26T07:09:05.066Z,4.90
2022-08-26T07:12:07.668Z,4.80
2022-08-26T07:15:10.660Z,4.90
2022-08-26T07:18:13.243Z,4.88
2022-08-26T07:21:18.329Z,4.80
2022-08-26T07:24:21.006Z,4.82
2022-08-26T07:27:23.212Z,4.78
2022-08-26T07:30:25.774Z,4.30
2022-08-26T07:33:29.949Z,4.95
2022-08-26T07:36:33.396Z,5.35
2022-08-26T07:39:35.728Z,5.05
2022-08-26T07:42:40.491Z,5.07
2022-08-26T07:45:42.795Z,4.90
2022-08-26T07:48:49.308Z,4.47
2022-08-26T07:51:51.723Z,4.70
2022-08-26T07:54:54.963Z,4.28
2022-08-26T07:57:57.662Z,5.10
2022-08-26T08:01:00.104Z,5.17
2022-08-26T08:04:03.070Z,5.00
2022-08-26T08:07:05.322Z,4.72
2022-08-26T08:10:13.383Z,5.15
2022-08-26T08:13:15.909Z,4.47
2022-08-26T08:16:18.530Z,4.83
2022-08-26T08:19:23.922Z,5.15
2022-08-26T08:22:32.542Z,4.50
2022-08-26T08:25:35.383Z,4.70
2022-08-26T08:28:38.585Z,5.10
2022-08-26T08:31:58.082Z,5.33
2022-08-26T08:35:11.536Z,5.00
2022-08-26T08:38:14.123Z,5.00
2022-08-26T08:41:23.972Z,5.07
2022-08-26T08:47:58.340Z,5.07
2022-08-26T08:51:23.668Z,4.90
2022-08-26T08:54:30.088Z,5.30
2022-08-26T08:58:06.371Z,4.90
2022-08-26T09:01:18.473Z,4.70
2022-08-26T09:04:41.978Z,4.40
2022-08-26T09:08:11.253Z,4.80
2022-08-26T09:11:15.178Z,4.72
2022-08-26T09:14:19.589Z,5.13
2022-08-26T09:18:05.869Z,4.53
2022-08-26T09:21:11.485Z,5.10
2022-08-26T09:24:14.201Z,4.60
2022-08-26T09:27:37.930Z,4.68
2022-08-26T09:30:40.331Z,4.45
2022-08-26T09:33:44.689Z,4.40
2022-08-26T09:37:00.085Z,4.60
2022-08-26T09:40:34.908Z,4.38
2022-08-26T09:43:38.418Z,4.30
2022-08-26T09:47:09.257Z,4.60
2022-08-26T09:50:29.061Z,5.18
2022-08-26T09:53:38.082Z,4.37
2022-08-26T09:56:41.169Z,4.40
2022-08-26T09:59:44.225Z,4.72
2022-08-26T10:02:47.518Z,4.28
2022-08-26T10:05:59.458Z,4.30
2022-08-26T10:09:08.299Z,4.47
2022-08-26T10:12:15.576Z,4.30
2022-08-26T10:15:19.459Z,4.40
2022-08-26T10:18:33.670Z,4.45
2022-08-26T10:22:06.647Z,4.20
2022-08-26T10:25:14.451Z,4.40
2022-08-26T10:28:31.818Z,4.40
2022-08-26T10:31:45.164Z,4.28
2022-08-26T10:34:50.129Z,4.30
2022-08-26T10:37:57.641Z,4.75
2022-08-26T10:41:11.700Z,4.83
2022-08-26T10:44:18.249Z,4.18
2022-08-26T10:47:31.793Z,4.45
2022-08-26T10:50:42.909Z,4.30
2022-08-26T10:53:55.835Z,4.43
2022-08-26T10:57:24.648Z,4.33
2022-08-26T11:01:10.759Z,4.18
2022-08-26T11:04:45.731Z,4.60
2022-08-26T11:07:54.868Z,4.60
2022-08-26T11:11:00.480Z,4.60
2022-08-26T11:14:05.123Z,4.50
2022-08-26T11:17:11.417Z,4.60
2022-08-26T11:20:22.522Z,3.65
2022-08-26T11:23:28.996Z,3.85
2022-08-26T11:26:56.079Z,4.10
2022-08-26T11:30:13.492Z,4.60
2022-08-26T11:33:49.016Z,3.95
2022-08-26T11:36:57.527Z,3.60
2022-08-26T11:40:01.266Z,4.00
2022-08-26T11:43:11.707Z,4.15
2022-08-26T11:46:24.251Z,4.13
2022-08-26T11:49:28.878Z,3.95
2022-08-26T11:52:31.256Z,3.65
2022-08-26T11:55:37.139Z,3.97
2022-08-26T11:58:44.116Z,4.47
2022-08-26T12:01:50.939Z,3.80
2022-08-26T12:04:53.922Z,3.92
2022-08-26T12:07:57.280Z,4.13
2022-08-26T12:11:09.643Z,4.00
2022-08-26T12:14:19.198Z,3.72
2022-08-26T12:17:27.442Z,4.10
2022-08-26T12:20:46.896Z,3.70
2022-08-26T12:23:54.751Z,4.30
2022-08-26T12:27:17.759Z,4.18
2022-08-26T12:30:22.980Z,4.10
2022-08-26T12:33:26.151Z,3.87
2022-08-26T12:36:51.738Z,4.20
2022-08-26T12:39:54.252Z,4.20
2022-08-26T12:42:59.237Z,3.92
2022-08-26T12:46:01.651Z,3.90
2022-08-26T12:49:04.339Z,4.40
2022-08-26T12:52:08.478Z,4.05
2022-08-26T12:55:21.109Z,4.00
2022-08-26T12:58:30.012Z,3.83
2022-08-26T13:01:43.768Z,3.65
2022-08-26T13:04:46.313Z,3.60
2022-08-26T13:08:10.629Z,3.70
2022-08-26T13:11:25.199Z,3.80
2022-08-26T13:14:27.412Z,3.95
2022-08-26T13:17:30.997Z,3.53
2022-08-26T13:20:33.733Z,3.77
2022-08-26T13:23:39.450Z,3.70
2022-08-26T13:26:45.892Z,3.95
2022-08-26T13:29:48.283Z,4.07
2022-08-26T13:32:53.162Z,3.60
2022-08-26T13:35:55.817Z,3.60
2022-08-26T13:38:58.067Z,3.95
2022-08-26T13:42:00.483Z,3.28
2022-08-26T13:45:03.712Z,3.53
2022-08-26T13:48:07.202Z,3.20
2022-08-26T13:51:09.758Z,3.43
2022-08-26T13:54:12.830Z,3.38
2022-08-26T13:57:15.076Z,3.60
2022-08-26T14:00:17.828Z,3.28
2022-08-26T14:03:20.238Z,3.55
2022-08-26T14:06:22.790Z,3.57
2022-08-26T14:09:25.020Z,3.30
2022-08-26T14:12:27.333Z,3.25
2022-08-26T14:15:29.669Z,3.42
2022-08-26T14:18:38.469Z,3.33
2022-08-26T14:21:44.800Z,3.50
2022-08-26T14:24:47.965Z,3.38
2022-08-26T14:27:50.583Z,3.85
2022-08-26T14:30:55.061Z,3.70
2022-08-26T14:33:59.749Z,3.65
2022-08-26T14:37:07.812Z,3.63
2022-08-26T14:40:14.801Z,3.55
2022-08-26T14:43:17.059Z,3.72
2022-08-26T14:46:20.200Z,4.10
2022-08-26T14:49:24.875Z,4.10
2022-08-26T14:52:28.175Z,4.27
2022-08-26T14:55:34.034Z,3.92
2022-08-26T14:58:36.508Z,4.30
2022-08-26T15:01:38.936Z,4.03
2022-08-26T15:04:41.778Z,4.00
2022-08-26T15:07:44.289Z,3.83
2022-08-26T15:10:46.540Z,3.50
2022-08-26T15:13:48.827Z,4.00
2022-08-26T15:16:53.913Z,4.40
2022-08-26T15:19:56.109Z,4.68
2022-08-26T15:23:06.939Z,4.10
2022-08-26T15:26:10.712Z,4.32
2022-08-26T15:29:13.777Z,4.30
2022-08-26T15:32:16.024Z,4.50
2022-08-26T15:35:18.350Z,4.10
2022-08-26T15:38:20.678Z,3.90
2022-08-26T15:41:24.296Z,4.03
2022-08-26T15:44:27.574Z,4.40
2022-08-26T15:47:29.967Z,4.20
2022-08-26T15:50:33.828Z,4.38
2022-08-26T15:53:36.141Z,3.93
2022-08-26T15:56:38.759Z,4.00
2022-08-26T15:59:41.049Z,3.78
2022-08-26T16:02:43.466Z,3.97
2022-08-26T16:05:46.625Z,4.00
2022-08-26T16:08:50.111Z,3.63
2022-08-26T16:11:53.456Z,3.60
2022-08-26T16:14:55.689Z,4.38
2022-08-26T16:18:02.945Z,3.95
2022-08-26T16:21:13.133Z,3.60
2022-08-26T16:24:17.937Z,3.63
2022-08-26T16:27:21.133Z,4.05
2022-08-26T16:30:26.683Z,3.83
2022-08-26T16:33:30.497Z,3.92
2022-08-26T16:36:33.685Z,3.50
2022-08-26T16:39:40.211Z,3.87
2022-08-26T16:42:48.278Z,3.83
2022-08-26T16:45:51.263Z,3.60
2022-08-26T16:48:56.204Z,3.53
2022-08-26T16:51:59.296Z,3.45
2022-08-26T16:55:02.395Z,4.20
2022-08-26T16:58:05.507Z,4.00
2022-08-26T17:01:08.944Z,3.58
2022-08-26T17:04:11.982Z,3.88
2022-08-26T17:07:15.078Z,3.63
2022-08-26T17:10:18.266Z,3.70
2022-08-26T17:13:35.336Z,4.20
2022-08-26T17:16:40.023Z,4.10
2022-08-26T17:19:47.015Z,4.10
2022-08-26T17:22:52.251Z,4.20
2022-08-26T17:25:55.347Z,4.53
2022-08-26T17:28:58.848Z,4.55
2022-08-26T17:32:01.837Z,4.30
2022-08-26T17:35:05.857Z,4.10
2022-08-26T17:38:08.906Z,4.18
2022-08-26T17:41:14.496Z,4.00
2022-08-26T17:44:17.487Z,4.45
2022-08-26T17:47:20.375Z,4.40
2022-08-26T17:50:24.085Z,4.80
2022-08-26T17:53:27.182Z,4.35
2022-08-26T17:56:30.480Z,4.17
2022-08-26T17:59:33.472Z,4.10
2022-08-26T18:02:40.151Z,5.18
2022-08-26T18:05:43.550Z,5.03
2022-08-26T18:08:46.645Z,5.05
2022-08-26T18:11:49.736Z,4.67
2022-08-26T18:14:52.835Z,4.78
2022-08-26T18:17:55.926Z,5.00
2022-08-26T18:21:01.581Z,5.40
2022-08-26T18:24:06.099Z,4.38
2022-08-26T18:27:09.201Z,4.67
2022-08-26T18:30:16.708Z,4.45
2022-08-26T18:33:21.939Z,4.90
2022-08-26T18:36:30.461Z,5.10
2022-08-26T18:39:33.445Z,6.50
2022-08-26T18:42:37.418Z,7.30
2022-08-26T18:45:41.566Z,6.93
2022-08-26T18:48:45.029Z,6.97
2022-08-26T18:51:53.960Z,6.45
2022-08-26T18:54:57.054Z,6.93
2022-08-26T18:58:00.555Z,6.03
2022-08-26T19:01:03.276Z,5.47
2022-08-26T19:04:07.104Z,5.95
2022-08-26T19:07:09.402Z,5.75
2022-08-26T19:10:12.120Z,5.78
2022-08-26T19:13:15.848Z,5.90
2022-08-26T19:16:24.444Z,6.20
2022-08-26T19:19:27.698Z,6.38
2022-08-26T19:22:30.234Z,6.22
2022-08-26T19:25:33.088Z,5.95
2022-08-26T19:28:36.551Z,5.73
2022-08-26T19:31:38.793Z,6.43
2022-08-26T19:34:40.981Z,6.10
2022-08-26T19:37:43.484Z,5.60
2022-08-26T19:40:46.150Z,8.82
2022-08-26T19:43:49.251Z,14.70
2022-08-26T19:46:51.796Z,11.35
2022-08-26T19:49:55.773Z,11.05
2022-08-26T19:52:58.590Z,9.85
2022-08-26T19:56:01.227Z,9.63
2022-08-26T19:59:03.977Z,9.10
2022-08-26T20:02:10.915Z,9.32
2022-08-26T20:05:15.116Z,8.88
2022-08-26T20:08:22.476Z,9.60
2022-08-26T20:11:25.624Z,8.88
2022-08-26T20:14:30.459Z,8.73
2022-08-26T20:17:34.578Z,8.55
2022-08-26T20:20:55.471Z,9.90
2022-08-26T20:24:04.789Z,8.77
2022-08-26T20:27:08.151Z,8.07
2022-08-26T20:30:12.066Z,7.27
2022-08-26T20:33:15.237Z,6.88
2022-08-26T20:36:20.329Z,6.93
2022-08-26T20:39:22.815Z,7.60
2022-08-26T20:42:26.361Z,5.80
2022-08-26T20:45:28.863Z,6.50
2022-08-26T20:48:31.193Z,7.10
2022-08-26T20:51:33.931Z,6.57
2022-08-26T20:54:36.113Z,6.13
2022-08-26T20:57:38.717Z,5.82
2022-08-26T21:00:41.039Z,6.50
2022-08-26T21:03:43.593Z,5.90
2022-08-26T21:06:50.788Z,5.70
2022-08-26T21:09:55.305Z,5.72
2022-08-26T21:12:58.016Z,6.00
2022-08-26T21:16:00.230Z,6.20
2022-08-26T21:19:04.402Z,6.88
2022-08-26T21:22:06.676Z,6.47
2022-08-26T21:25:09.492Z,7.88
2022-08-26T21:28:11.941Z,7.13
2022-08-26T21:31:17.948Z,8.00
2022-08-26T21:34:20.327Z,8.20
2022-08-26T21:37:22.636Z,8.73
2022-08-26T21:40:24.986Z,7.75
2022-08-26T21:43:35.180Z,7.95
2022-08-26T21:46:37.904Z,8.40
2022-08-26T21:49:40.288Z,8.00
2022-08-26T21:52:42.582Z,8.10
2022-08-26T21:55:45.614Z,7.10
2022-08-26T21:58:48.252Z,6.78
2022-08-26T22:01:51.303Z,8.20
2022-08-26T22:04:54.041Z,7.35
2022-08-26T22:07:56.323Z,7.43
2022-08-26T22:11:00.766Z,8.20
2022-08-26T22:14:03.136Z,8.48
2022-08-26T22:17:05.974Z,8.80
2022-08-26T22:20:11.531Z,8.65
2022-08-26T22:23:20.809Z,9.23
2022-08-26T22:26:25.685Z,9.02
2022-08-26T22:29:28.188Z,9.20
2022-08-26T22:32:30.393Z,8.43
2022-08-26T22:35:32.707Z,8.07
2022-08-26T22:38:34.998Z,8.38
2022-08-26T22:41:37.213Z,10.00
2022-08-26T22:44:41.272Z,10.43
2022-08-26T22:47:43.539Z,9.57
2022-08-26T22:50:47.318Z,9.00
2022-08-26T22:53:49.702Z,9.48
2022-08-26T22:56:51.988Z,9.25
2022-08-26T22:59:54.196Z,8.93
2022-08-26T23:02:57.176Z,8.83
2022-08-26T23:06:00.318Z,9.10
2022-08-26T23:09:02.653Z,9.18
2022-08-26T23:12:05.934Z,10.05
2022-08-26T23:15:10.416Z,9.50
2022-08-26T23:18:14.358Z,9.70
2022-08-26T23:21:16.732Z,9.40
2022-08-26T23:24:19.152Z,10.55
2022-08-26T23:27:21.431Z,11.80
2022-08-26T23:30:25.790Z,11.63
2022-08-26T23:33:48.143Z,12.07
2022-08-26T23:36:51.168Z,11.95
2022-08-26T23:39:54.437Z,12.82
2022-08-26T23:42:58.309Z,12.30
2022-08-26T23:46:00.613Z,11.27
2022-08-26T23:49:04.156Z,10.30
2022-08-26T23:52:41.965Z,10.52
2022-08-26T23:55:44.212Z,10.38
2022-08-26T23:58:47.305Z,9.93
